Current Weather Conditions: station 46183

sailwx.info

Wind from 140 at 31 knots gusting 38

Wave height 3.2 meters (10 feet), 7 second period

Air temperature 8.8° C
Water temperature 9.7° C

Last reported at 2016-May-01 00:00 UTC.
Time now 2016-May-01 02:22 UTC

Location: N 53°36' W 131°06'.
View on Google Maps.

See reports from other nearby stations

  
Tides and Currents Weather Stations Pressure Air Temp Water Temp Dewpoint Dewpoint Depression Visibility Wind Speed Wind Dir Waves Ship Positions
date/time (UTC)wind fromknots sea level pressurealtimeterstation pressurevisibilityair tempwater tempwave heightnotes
2016-May-01 00:00 140 31 gusting 38 8.8 9.7 3.2
2016-Apr-30 23:00 140 31 gusting 36 8.9 9.7 3.5
2016-Apr-30 22:00 140 29 gusting 34 9.0 9.7 3.3
2016-Apr-30 21:00 140 33 gusting 38 8.8 9.7 3.2
2016-Apr-30 20:00 150 31 gusting 38 8.9 9.7 3.1
2016-Apr-30 19:00 140 31 gusting 40 9.3 9.7 2.7
2016-Apr-30 18:00 150 31 gusting 38 9.1 9.7 2.4
2016-Apr-30 17:00 140 27 gusting 33 8.7 9.7 2.0
2016-Apr-30 16:00 140 27 gusting 34 8.7 9.8 1.8
2016-Apr-30 15:00 140 23 gusting 29 9.0 9.8 1.4
2016-Apr-30 14:00 140 21 gusting 27 9.0 9.8 1.1
2016-Apr-30 13:00 140 19 gusting 23 9.1 9.8 0.9
2016-Apr-30 12:00 140 15 gusting 19 9.1 9.8 0.7
2016-Apr-30 11:00 150 15 gusting 17 9.1 9.8 0.6
2016-Apr-30 10:00 150 13 gusting 15 9.1 9.8 0.5
2016-Apr-30 09:00 150 11 gusting 13 9.3 9.8 0.5
2016-Apr-30 08:00 150 11 gusting 13 9.3 9.8 0.5
2016-Apr-30 07:00 160 11 gusting 13 9.5 9.9 0.6
2016-Apr-30 06:00 150 11 gusting 15 9.5 9.9 0.6
2016-Apr-30 05:00 150 11 gusting 13 9.510.0 0.5
2016-Apr-30 04:00 160 11 gusting 13 9.4 9.9 0.5
2016-Apr-30 03:00 150 11 gusting 13 9.3 9.9 0.5
2016-Apr-30 02:00 150 11 gusting 11 9.610.1 0.5
2016-Apr-30 01:00 140 9 gusting 11 9.510.2 0.5
2016-Apr-30 00:00 160 9 gusting 11 9.510.2 0.4
2016-Apr-29 23:00 150 9 gusting 11 9.310.4 0.4
2016-Apr-29 22:00 170 7 gusting 7 9.310.6 0.5
2016-Apr-29 21:00 160 5 gusting 7 9.110.4 0.5
2016-Apr-29 19:00 210 3 gusting 5 8.810.1 0.5
2016-Apr-29 18:00 220 3 gusting 7 8.6 9.9 0.5
2016-Apr-29 17:00 240 3 gusting 5 8.5 9.8 0.6
2016-Apr-29 16:00 250 5 gusting 5 8.5 9.6 0.6
2016-Apr-29 15:00 260 7 gusting 9 8.3 9.6 0.6
2016-Apr-29 14:00 260 5 gusting 7 8.2 9.6 0.7
2016-Apr-29 13:00 260 5 gusting 7 8.1 9.6 0.7
2016-Apr-29 12:00 260 9 gusting 11 8.2 9.5 0.7
2016-Apr-29 11:00 260 7 gusting 7 8.1 9.5 0.8
2016-Apr-29 10:00 260 7 gusting 9 8.1 9.5 0.8
2016-Apr-29 09:00 260 9 gusting 11 8.2 9.6 0.8
2016-Apr-29 08:00 260 7 gusting 9 8.3 9.6 0.9
2016-Apr-29 07:00 280 7 gusting 9 8.4 9.6 1.0
2016-Apr-29 06:00 290 3 gusting 5 8.2 9.6 1.1
2016-Apr-29 05:00 340 5 gusting 7 8.0 9.6 1.2
2016-Apr-29 04:00 340 11 gusting 13 8.3 9.6 1.3
2016-Apr-29 03:00 320 9 gusting 13 8.9 9.7 1.5
2016-Apr-29 02:00 320 3 gusting 7 8.6 9.7 1.8